Time;durP1;ratioP1;P1;durP2;ratioP2;P2;SDS_P1;SDS_P2;PMS_P1;PMS_P2;Temp;Humidity;BMP_temperature;BMP_pressure;BME280_temperature;BME280_humidity;BME280_pressure;Samples;Min_cycle;Max_cycle;Signal;HPM_P1;HPM_P2
2022/12/14 00:01:44;;;;;;;27.13;11.70;;;;;;;-145.69;100.00;52705.81;5094039;28;20221;-81
2022/12/14 00:04:10;;;;;;;26.73;11.03;;;;;;;-145.69;100.00;52749.38;5094048;28;20245;-81
2022/12/14 00:06:37;;;;;;;32.87;11.27;;;;;;;-145.69;100.00;52715.72;5093801;28;20197;-81
2022/12/14 00:09:05;;;;;;;27.63;11.47;;;;;;;-145.69;100.00;52721.66;5094311;28;20198;-82
2022/12/14 00:11:34;;;;;;;32.03;10.97;;;;;;;-145.69;100.00;52693.94;5093978;28;20218;-81
2022/12/14 00:14:03;;;;;;;24.97;10.63;;;;;;;-145.69;100.00;52658.28;5094133;28;20632;-81
2022/12/14 00:16:31;;;;;;;29.60;10.30;;;;;;;-145.69;100.00;52761.25;5093942;28;20534;-82
2022/12/14 00:19:00;;;;;;;25.17;10.93;;;;;;;-145.69;100.00;52701.84;5093261;28;20209;-81
2022/12/14 00:21:27;;;;;;;24.33;10.10;;;;;;;-145.69;100.00;52691.94;5093866;28;20210;-82
2022/12/14 00:23:54;;;;;;;24.27;11.00;;;;;;;-145.69;100.00;52721.66;5093670;28;20202;-81
2022/12/14 00:26:23;;;;;;;22.53;10.17;;;;;;;-145.69;100.00;52721.66;5093645;28;20193;-82
2022/12/14 00:28:52;;;;;;;22.47;10.80;;;;;;;-145.69;100.00;52707.78;5093778;28;20198;-82
2022/12/14 00:31:19;;;;;;;23.63;10.33;;;;;;;-145.69;100.00;52678.09;5092971;28;20187;-81
2022/12/14 00:33:46;;;;;;;26.57;10.27;;;;;;;-145.69;100.00;52697.88;5093446;28;20197;-82
2022/12/14 00:36:13;;;;;;;24.43;10.23;;;;;;;-145.69;100.00;52693.94;5091647;28;20232;-82
2022/12/14 00:38:40;;;;;;;21.10;9.03;;;;;;;-145.69;100.00;52703.81;5093619;28;20223;-82
2022/12/14 00:41:08;;;;;;;27.77;11.30;;;;;;;-145.69;100.00;52707.78;5093309;28;20201;-82
2022/12/14 00:43:35;;;;;;;24.87;10.47;;;;;;;-145.69;100.00;52707.78;5093319;28;20198;-81
2022/12/14 00:46:03;;;;;;;28.10;11.00;;;;;;;-145.69;100.00;52713.72;5093149;28;20198;-81
2022/12/14 00:48:30;;;;;;;28.63;10.90;;;;;;;-145.69;100.00;52697.88;5093567;28;20225;-82
2022/12/14 00:50:56;;;;;;;29.20;10.63;;;;;;;-145.69;100.00;52711.75;5093162;28;20209;-82
2022/12/14 00:53:24;;;;;;;22.57;10.70;;;;;;;-145.69;100.00;52678.09;5093279;28;20226;-82
2022/12/14 00:55:51;;;;;;;25.87;10.87;;;;;;;-145.69;100.00;52689.97;5092892;28;20671;-82
2022/12/14 00:58:20;;;;;;;22.87;10.60;;;;;;;-145.69;100.00;52686.00;5092920;28;20208;-82
2022/12/14 01:00:53;;;;;;;23.20;11.13;;;;;;;-145.69;100.00;52713.72;5092808;28;20198;-82
2022/12/14 01:03:21;;;;;;;22.97;9.77;;;;;;;-145.69;100.00;52678.09;5093478;28;20198;-81
2022/12/14 01:05:47;;;;;;;30.80;10.70;;;;;;;-145.69;100.00;52686.00;5093084;28;20229;-81
2022/12/14 01:08:14;;;;;;;27.93;10.90;;;;;;;-145.69;100.00;52719.66;5092337;28;20580;-81
2022/12/14 01:10:40;;;;;;;25.83;11.50;;;;;;;-145.69;100.00;52717.69;5092736;28;20194;-82
2022/12/14 01:13:07;;;;;;;24.57;10.67;;;;;;;-145.69;100.00;52686.00;5092844;28;20225;-81
2022/12/14 01:15:34;;;;;;;22.30;10.50;;;;;;;-145.69;100.00;52699.88;5092251;28;20568;-81
2022/12/14 01:18:01;;;;;;;18.77;9.87;;;;;;;-145.69;100.00;52705.81;5092243;28;20724;-82
2022/12/14 01:20:29;;;;;;;23.30;9.77;;;;;;;-145.69;100.00;52707.78;5093055;28;20194;-82
2022/12/14 01:22:56;;;;;;;25.30;11.20;;;;;;;-145.69;100.00;52693.94;5092811;28;20198;-81
2022/12/14 01:25:23;;;;;;;23.70;10.70;;;;;;;-145.69;100.00;52693.94;5092432;28;20198;-81
2022/12/14 01:27:49;;;;;;;23.53;9.93;;;;;;;-145.69;100.00;52737.50;5092490;28;20210;-80
2022/12/14 01:30:18;;;;;;;23.83;10.70;;;;;;;-145.69;100.00;52693.94;5092942;28;20541;-82
2022/12/14 01:32:44;;;;;;;20.93;10.13;;;;;;;-145.69;100.00;52684.03;5092412;28;20271;-82
2022/12/14 01:35:11;;;;;;;27.60;11.07;;;;;;;-145.69;100.00;52731.56;5092795;28;20226;-82
2022/12/14 01:37:39;;;;;;;22.40;10.90;;;;;;;-145.69;100.00;52723.63;5092877;28;20200;-82
2022/12/14 01:40:06;;;;;;;25.83;11.33;;;;;;;-145.69;100.00;52705.81;5092788;28;20538;-82
2022/12/14 01:42:34;;;;;;;24.33;10.13;;;;;;;-145.69;100.00;52697.88;5092407;28;20193;-82
2022/12/14 01:45:01;;;;;;;25.33;10.47;;;;;;;-145.69;100.00;52725.63;5092765;28;20209;-83
2022/12/14 01:47:36;;;;;;;21.23;10.20;;;;;;;-145.69;100.00;52701.84;5092537;28;20209;-83
2022/12/14 01:50:10;;;;;;;17.47;8.37;;;;;;;-145.69;100.00;52687.97;5092620;28;20201;-81
2022/12/14 01:52:40;;;;;;;18.07;9.07;;;;;;;-145.69;100.00;52711.75;5081922;28;20225;-83
2022/12/14 01:55:12;;;;;;;23.50;10.37;;;;;;;-145.69;100.00;52701.84;5092664;28;20202;-83
2022/12/14 01:57:45;;;;;;;26.50;10.90;;;;;;;-145.69;100.00;52693.94;5092405;28;20652;-83
2022/12/14 02:00:13;;;;;;;26.57;10.97;;;;;;;-145.69;100.00;52721.66;5092997;28;20327;-84
2022/12/14 02:02:44;;;;;;;27.33;10.23;;;;;;;-145.69;100.00;52689.97;5092044;28;20204;-83
2022/12/14 02:05:12;;;;;;;24.87;10.10;;;;;;;-145.69;100.00;52678.09;5092627;28;20204;-82
2022/12/14 02:07:44;;;;;;;25.47;10.43;;;;;;;-145.69;100.00;52731.56;5092489;28;20208;-82
2022/12/14 02:10:11;;;;;;;24.77;11.17;;;;;;;-145.69;100.00;52709.78;5095306;28;20197;-82
2022/12/14 02:12:41;;;;;;;22.67;10.03;;;;;;;-145.69;100.00;52689.97;5096171;28;20271;-83
2022/12/14 02:15:09;;;;;;;23.97;10.30;;;;;;;-145.69;100.00;52699.88;5096422;28;20285;-83
2022/12/14 02:17:35;;;;;;;27.83;11.53;;;;;;;-145.69;100.00;52695.91;5095964;28;20290;-82
2022/12/14 02:20:03;;;;;;;22.93;10.20;;;;;;;-145.69;100.00;52701.84;5095809;28;20198;-82
2022/12/14 02:23:17;;;;;;;24.30;11.07;;;;;;;-145.69;100.00;52701.84;5096190;28;20191;-83
2022/12/14 02:26:27;;;;;;;24.80;10.50;;;;;;;-145.69;100.00;52721.66;5033897;28;20283;-82
2022/12/14 02:29:23;;;;;;;21.17;9.87;;;;;;;-145.69;100.00;52719.66;5095612;28;20204;-82
2022/12/14 02:31:58;;;;;;;23.67;10.23;;;;;;;-145.69;100.00;52682.03;5096247;28;20198;-82
2022/12/14 02:34:34;;;;;;;25.83;11.30;;;;;;;-145.69;100.00;52707.78;5096053;28;20229;-82
2022/12/14 02:37:09;;;;;;;26.07;10.77;;;;;;;-145.69;100.00;52717.69;5095788;28;20205;-83
2022/12/14 02:39:44;;;;;;;25.57;10.80;;;;;;;-145.69;100.00;52749.38;5095928;28;20284;-83
2022/12/14 02:42:14;;;;;;;22.47;10.20;;;;;;;-145.69;100.00;52682.03;5096230;28;20237;-84
2022/12/14 02:44:51;;;;;;;27.27;11.13;;;;;;;-145.69;100.00;52678.09;5095978;28;20202;-84
2022/12/14 02:47:25;;;;;;;23.93;10.73;;;;;;;-145.69;100.00;52680.06;5095394;28;20198;-83
2022/12/14 02:50:01;;;;;;;25.33;10.63;;;;;;;-145.69;100.00;52701.84;5095715;28;20198;-83
2022/12/14 02:52:40;;;;;;;24.47;10.03;;;;;;;-145.69;100.00;52711.75;5095680;28;20222;-83
2022/12/14 02:55:14;;;;;;;21.40;9.63;;;;;;;-145.69;100.00;52701.84;5095102;28;20201;-83
2022/12/14 02:57:48;;;;;;;23.00;10.43;;;;;;;-145.69;100.00;52717.69;5095582;28;20198;-83
2022/12/14 03:00:16;;;;;;;22.80;9.87;;;;;;;-145.69;100.00;52701.84;5095495;28;20201;-82
2022/12/14 03:02:45;;;;;;;26.03;10.87;;;;;;;-145.69;100.00;52713.72;5095769;28;20209;-84
2022/12/14 03:05:11;;;;;;;23.20;10.10;;;;;;;-145.69;100.00;52695.91;5095320;28;20198;-83
2022/12/14 03:07:43;;;;;;;22.95;10.60;;;;;;;-145.69;100.00;52745.41;5095180;28;20379;-83
2022/12/14 03:10:20;;;;;;;27.97;10.53;;;;;;;-145.69;100.00;52697.88;5095292;28;20679;-82
2022/12/14 03:12:53;;;;;;;24.83;10.80;;;;;;;-145.69;100.00;52705.81;5095370;28;20279;-83
2022/12/14 03:15:25;;;;;;;26.87;11.00;;;;;;;-145.69;100.00;52705.81;5095302;28;20202;-83
2022/12/14 03:17:57;;;;;;;25.60;11.47;;;;;;;-145.69;100.00;52705.81;5094671;28;20194;-83
2022/12/14 03:20:26;;;;;;;23.60;10.90;;;;;;;-145.69;100.00;52682.03;5095042;28;20212;-83
2022/12/14 03:22:57;;;;;;;22.93;10.90;;;;;;;-145.69;100.00;52697.88;5093434;28;20657;-83
2022/12/14 03:25:29;;;;;;;23.60;10.70;;;;;;;-145.69;100.00;52701.84;5095431;28;20693;-83
2022/12/14 03:28:01;;;;;;;23.83;11.17;;;;;;;-145.69;100.00;52707.78;5095074;28;20240;-82
2022/12/14 03:30:29;;;;;;;25.03;11.17;;;;;;;-145.69;100.00;52701.84;5094984;28;20202;-83
2022/12/14 03:33:02;;;;;;;30.00;11.57;;;;;;;-145.69;100.00;52670.16;5094486;28;20222;-82
2022/12/14 03:35:33;;;;;;;28.40;12.13;;;;;;;-145.69;100.00;52721.66;5094981;28;20233;-83
2022/12/14 03:38:04;;;;;;;28.40;12.33;;;;;;;-145.69;100.00;52682.03;5094668;28;20213;-83
2022/12/14 03:40:37;;;;;;;23.87;12.23;;;;;;;-145.69;100.00;52678.09;5094797;28;20190;-83
2022/12/14 03:43:15;;;;;;;27.60;12.97;;;;;;;-145.69;100.00;52723.63;5094631;28;20234;-83
2022/12/14 03:45:49;;;;;;;26.03;11.70;;;;;;;-145.69;100.00;52701.84;5094891;28;20229;-83
2022/12/14 03:48:29;;;;;;;33.00;17.38;;;;;;;-145.69;100.00;52697.88;5090743;28;20438;-83
2022/12/14 03:51:05;;;;;;;28.23;13.53;;;;;;;-145.69;100.00;52678.09;5074588;28;20616;-83
2022/12/14 03:53:40;;;;;;;30.47;12.83;;;;;;;-145.69;100.00;52757.31;5074199;28;20279;-82
2022/12/14 03:56:12;;;;;;;32.13;14.27;;;;;;;-145.69;100.00;52672.13;5087873;28;20526;-86
2022/12/14 03:58:48;;;;;;;27.73;12.57;;;;;;;-145.69;100.00;52705.81;5094202;28;20194;-83
2022/12/14 04:01:25;;;;;;;36.97;14.10;;;;;;;-145.69;100.00;52703.81;5094596;28;20202;-82
2022/12/14 04:03:56;;;;;;;32.23;13.40;;;;;;;-145.69;100.00;52735.50;5094539;28;20194;-83
2022/12/14 04:06:31;;;;;;;30.90;12.80;;;;;;;-145.69;100.00;52693.94;5094580;28;20193;-84
2022/12/14 04:09:08;;;;;;;31.93;13.50;;;;;;;-145.69;100.00;52701.84;5094380;28;20194;-84
2022/12/14 04:20:13;;;;;;;29.87;13.37;;;;;;;-145.69;100.00;52686.00;5094117;28;20201;-83
2022/12/14 04:22:44;;;;;;;30.47;13.23;;;;;;;-145.69;100.00;52678.09;5094225;28;20288;-83
2022/12/14 04:28:05;;;;;;;29.70;12.63;;;;;;;-145.69;100.00;52703.81;5094019;28;20279;-83
2022/12/14 04:30:36;;;;;;;32.17;13.43;;;;;;;-145.69;100.00;52701.84;5093939;28;20649;-84
2022/12/14 04:35:50;;;;;;;36.17;14.37;;;;;;;-145.69;100.00;52674.13;5093044;28;20225;-83
2022/12/14 04:38:22;;;;;;;30.40;13.30;;;;;;;-145.69;100.00;52721.66;5093946;28;20567;-83
2022/12/14 04:40:52;;;;;;;33.87;14.53;;;;;;;-145.69;100.00;52695.91;5093578;28;20538;-84
2022/12/14 04:43:23;;;;;;;30.23;13.90;;;;;;;-145.69;100.00;52715.72;5093459;28;20202;-83
2022/12/14 04:45:55;;;;;;;30.43;13.87;;;;;;;-145.69;100.00;52705.81;5093620;28;20644;-84
2022/12/14 04:48:28;;;;;;;38.67;14.63;;;;;;;-145.69;100.00;52707.78;5093935;28;20204;-83
2022/12/14 04:51:10;;;;;;;32.87;13.77;;;;;;;-145.69;100.00;52725.63;5093228;28;20208;-84
2022/12/14 04:53:40;;;;;;;32.20;13.63;;;;;;;-145.69;100.00;52719.66;5093775;28;20232;-84
2022/12/14 04:56:12;;;;;;;31.17;14.57;;;;;;;-145.69;100.00;52725.63;5093807;28;20198;-84
2022/12/14 04:58:40;;;;;;;33.03;14.37;;;;;;;-145.69;100.00;52686.00;5093876;28;20614;-84
2022/12/14 05:01:27;;;;;;;33.00;14.70;;;;;;;-145.69;100.00;52705.81;5093590;28;20201;-83
2022/12/14 05:04:04;;;;;;;35.67;14.83;;;;;;;-145.69;100.00;52703.81;5093436;28;20206;-84
2022/12/14 05:06:37;;;;;;;33.17;14.90;;;;;;;-145.69;100.00;52721.66;5093541;28;20196;-83
2022/12/14 05:09:13;;;;;;;34.37;14.63;;;;;;;-145.69;100.00;52705.81;5093571;28;20194;-83
2022/12/14 05:11:46;;;;;;;33.17;14.80;;;;;;;-145.69;100.00;52711.75;5093328;28;20284;-84
2022/12/14 05:14:17;;;;;;;36.27;16.63;;;;;;;-145.69;100.00;52713.72;5093257;28;20245;-84
2022/12/14 05:16:44;;;;;;;37.60;15.07;;;;;;;-145.69;100.00;52725.63;5093540;28;20206;-84
2022/12/14 05:19:12;;;;;;;34.27;14.63;;;;;;;-145.69;100.00;52693.94;5092824;28;20208;-84
2022/12/14 05:21:47;;;;;;;37.13;15.47;;;;;;;-145.69;100.00;52719.66;5093266;28;20205;-84
2022/12/14 05:24:15;;;;;;;38.87;15.77;;;;;;;-145.69;100.00;52686.00;5093498;28;20289;-83
2022/12/14 05:26:41;;;;;;;34.97;14.93;;;;;;;-145.69;100.00;52733.53;5093360;28;20694;-84
2022/12/14 05:29:08;;;;;;;37.80;15.97;;;;;;;-145.69;100.00;52693.94;5093312;28;20201;-84
2022/12/14 05:31:35;;;;;;;33.83;15.20;;;;;;;-145.69;100.00;52717.69;5092769;28;20202;-82
2022/12/14 05:34:01;;;;;;;39.20;15.60;;;;;;;-145.69;100.00;52717.69;5093270;28;20663;-84
2022/12/14 05:36:29;;;;;;;36.07;15.17;;;;;;;-145.69;100.00;52695.91;5093122;28;20230;-83
2022/12/14 05:38:56;;;;;;;36.20;15.67;;;;;;;-145.69;100.00;52719.66;5093101;28;20196;-84
2022/12/14 05:41:22;;;;;;;34.03;14.50;;;;;;;-145.69;100.00;52699.88;5093099;28;20201;-84
2022/12/14 05:43:49;;;;;;;35.63;14.87;;;;;;;-145.69;100.00;52699.88;5093977;28;20200;-84
2022/12/14 05:46:15;;;;;;;37.17;15.77;;;;;;;-145.69;100.00;52717.69;5097160;28;20224;-84
2022/12/14 05:48:42;;;;;;;40.97;16.47;;;;;;;-145.69;100.00;52686.00;5091734;28;20232;-84
2022/12/14 05:51:12;;;;;;;37.07;15.67;;;;;;;-145.69;100.00;52713.72;5098932;28;20194;-84
2022/12/14 05:53:40;;;;;;;40.40;15.93;;;;;;;-145.69;100.00;52713.72;5097838;28;20687;-84
2022/12/14 05:56:08;;;;;;;34.13;14.83;;;;;;;-145.69;100.00;52682.03;5098719;28;20213;-83
2022/12/14 05:58:35;;;;;;;34.87;15.50;;;;;;;-145.69;100.00;52721.66;5098188;28;20663;-84
2022/12/14 06:01:03;;;;;;;37.23;15.40;;;;;;;-145.69;100.00;52707.78;5097953;28;20281;-84
2022/12/14 06:03:30;;;;;;;43.33;16.77;;;;;;;-145.69;100.00;52691.94;5097649;28;20645;-83
2022/12/14 06:06:01;;;;;;;39.63;16.00;;;;;;;-145.69;100.00;52723.63;5097099;28;20206;-84
2022/12/14 06:08:31;;;;;;;39.53;16.67;;;;;;;-145.69;100.00;52699.88;5097787;28;20202;-83
2022/12/14 06:11:03;;;;;;;37.30;15.00;;;;;;;-145.69;100.00;52737.50;5099109;28;20200;-83
2022/12/14 06:13:30;;;;;;;39.77;15.70;;;;;;;-145.69;100.00;52725.63;5103449;28;20659;-83
2022/12/14 06:16:06;;;;;;;37.87;15.90;;;;;;;-145.69;100.00;52684.03;5103710;28;20198;-83
2022/12/14 06:18:33;;;;;;;38.90;15.13;;;;;;;-145.69;100.00;52682.03;5106319;28;20204;-83
2022/12/14 06:20:59;;;;;;;43.80;16.83;;;;;;;-145.69;100.00;52682.03;5105731;28;20201;-83
2022/12/14 06:23:26;;;;;;;37.07;16.93;;;;;;;-145.69;100.00;52689.97;5102575;28;20225;-82
2022/12/14 06:25:53;;;;;;;42.00;15.17;;;;;;;-145.69;100.00;52693.94;5100444;28;20198;-83
2022/12/14 06:28:21;;;;;;;38.13;15.23;;;;;;;-145.69;100.00;52699.88;5098387;28;20252;-83
2022/12/14 06:30:48;;;;;;;45.20;15.17;;;;;;;-145.69;100.00;52682.03;5096604;28;20202;-83
2022/12/14 06:33:15;;;;;;;43.20;17.77;;;;;;;-145.69;100.00;52725.63;5096263;28;20226;-82
2022/12/14 06:35:42;;;;;;;41.90;17.83;;;;;;;-145.69;100.00;52686.00;5096084;28;20274;-83
2022/12/14 06:38:09;;;;;;;44.30;16.77;;;;;;;-145.69;100.00;52656.28;5096075;28;20286;-81
2022/12/14 06:40:35;;;;;;;46.70;16.93;;;;;;;-145.69;100.00;52711.75;5096053;28;20243;-82
2022/12/14 06:43:02;;;;;;;40.60;17.07;;;;;;;-145.69;100.00;52687.97;5095694;28;20209;-82
2022/12/14 06:45:30;;;;;;;43.10;16.13;;;;;;;-145.69;100.00;52711.75;5095558;28;20669;-81
2022/12/14 06:47:57;;;;;;;46.30;17.57;;;;;;;-145.69;100.00;52703.81;5095603;28;20208;-81
2022/12/14 06:50:24;;;;;;;54.97;18.53;;;;;;;-145.69;100.00;52686.00;5094938;28;20235;-81
2022/12/14 06:52:51;;;;;;;54.87;18.77;;;;;;;-145.69;100.00;52664.22;5095129;28;20212;-81
2022/12/14 06:55:17;;;;;;;52.00;18.20;;;;;;;-145.69;100.00;52674.13;5095308;28;20218;-81
2022/12/14 06:57:44;;;;;;;38.80;16.47;;;;;;;-145.69;100.00;52705.81;5095239;28;20194;-81
2022/12/14 07:00:12;;;;;;;49.50;18.40;;;;;;;-145.69;100.00;52662.22;5095387;28;20622;-81
2022/12/14 07:02:39;;;;;;;49.60;17.63;;;;;;;-145.69;100.00;52684.03;5095435;28;20240;-81
2022/12/14 07:05:06;;;;;;;50.97;16.73;;;;;;;-145.69;100.00;52717.69;5095276;28;20202;-81
2022/12/14 07:07:34;;;;;;;47.10;18.97;;;;;;;-145.69;100.00;52701.84;5094961;28;20194;-81
2022/12/14 07:10:01;;;;;;;45.73;17.60;;;;;;;-145.69;100.00;52701.84;5095459;28;20206;-81
2022/12/14 07:12:27;;;;;;;49.93;17.30;;;;;;;-145.69;100.00;52725.63;5094954;28;20197;-81
2022/12/14 07:14:55;;;;;;;50.97;19.37;;;;;;;-145.69;100.00;52713.72;5095057;28;20221;-81
2022/12/14 07:17:21;;;;;;;49.50;18.73;;;;;;;-145.69;100.00;52691.94;5094845;28;20202;-81
2022/12/14 07:19:52;;;;;;;49.73;18.27;;;;;;;-145.69;100.00;52727.59;5095182;28;20568;-81
2022/12/14 07:22:18;;;;;;;51.03;19.33;;;;;;;-145.69;100.00;52725.63;5095178;28;20214;-82
2022/12/14 07:24:45;;;;;;;48.03;18.43;;;;;;;-145.69;100.00;52713.72;5095333;28;20198;-81
2022/12/14 07:27:11;;;;;;;48.23;18.47;;;;;;;-145.69;100.00;52682.03;5094440;28;20190;-81
2022/12/14 07:29:38;;;;;;;48.50;17.80;;;;;;;-145.69;100.00;52686.00;5095272;28;20320;-81
2022/12/14 07:32:05;;;;;;;50.67;19.03;;;;;;;-145.69;100.00;52693.94;5094121;28;20190;-81
2022/12/14 07:34:31;;;;;;;53.03;19.57;;;;;;;-145.69;100.00;52658.28;5094921;28;20236;-81
2022/12/14 07:36:59;;;;;;;59.27;20.20;;;;;;;-145.69;100.00;52686.00;5094538;28;20190;-82
2022/12/14 07:39:26;;;;;;;61.27;20.33;;;;;;;-145.69;100.00;52709.78;5096004;28;20202;-84
2022/12/14 07:41:53;;;;;;;49.03;19.30;;;;;;;-145.69;100.00;52686.00;5095482;28;20817;-81
2022/12/14 07:44:20;;;;;;;49.33;18.23;;;;;;;-145.69;100.00;52713.72;5094336;28;20204;-80
2022/12/14 07:46:46;;;;;;;54.40;20.53;;;;;;;-145.69;100.00;52693.94;5094403;28;20210;-81
2022/12/14 07:49:13;;;;;;;49.87;20.37;;;;;;;-145.69;100.00;52697.88;5094288;28;20552;-81
2022/12/14 07:51:42;;;;;;;45.67;17.47;;;;;;;-145.69;100.00;52682.03;5091453;28;20626;-82
2022/12/14 07:54:12;;;;;;;49.90;18.40;;;;;;;-145.69;100.00;52682.03;5090102;28;20588;-85
2022/12/14 07:56:40;;;;;;;54.93;19.33;;;;;;;-145.69;100.00;52705.81;5097083;28;20206;-85
2022/12/14 07:59:11;;;;;;;50.53;17.67;;;;;;;-145.69;100.00;52687.97;5097507;28;20226;-85
2022/12/14 08:01:39;;;;;;;49.30;18.17;;;;;;;-145.69;100.00;52729.56;5098825;28;20195;-83
2022/12/14 08:04:08;;;;;;;46.70;18.33;;;;;;;-145.69;100.00;52650.34;5099107;28;20597;-85
2022/12/14 08:06:38;;;;;;;44.77;17.57;;;;;;;-145.69;100.00;52703.81;5098133;28;20415;-84
2022/12/14 08:09:07;;;;;;;46.63;19.17;;;;;;;-145.69;100.00;52705.81;5098768;28;20209;-84
2022/12/14 08:11:35;;;;;;;45.50;17.67;;;;;;;-145.69;100.00;52686.00;5099020;28;20291;-85
2022/12/14 08:14:06;;;;;;;45.13;17.17;;;;;;;-145.69;100.00;52717.69;5100112;28;20550;-85
2022/12/14 08:16:32;;;;;;;37.03;16.67;;;;;;;-145.69;100.00;52691.94;5098698;28;20201;-86
2022/12/14 08:19:00;;;;;;;41.97;16.47;;;;;;;-145.69;100.00;52686.00;5101067;28;20205;-85
2022/12/14 08:21:27;;;;;;;64.40;30.90;;;;;;;-145.69;100.00;52687.97;5096438;28;20612;-85
2022/12/14 08:23:54;;;;;;;74.40;33.10;;;;;;;-145.69;100.00;52713.72;5096950;28;20205;-85
2022/12/14 08:26:22;;;;;;;94.60;38.50;;;;;;;-145.69;100.00;52682.03;5095225;28;20198;-84
2022/12/14 08:28:50;;;;;;;70.00;30.67;;;;;;;-145.69;100.00;52686.00;5094843;28;20668;-83
2022/12/14 08:31:19;;;;;;;78.17;32.57;;;;;;;-145.69;100.00;52672.13;5094970;28;20205;-84
2022/12/14 08:33:46;;;;;;;64.13;28.93;;;;;;;-145.69;100.00;52693.94;5094775;28;20221;-84
2022/12/14 08:36:15;;;;;;;67.03;27.17;;;;;;;-145.69;100.00;52709.78;5095761;28;20317;-84
2022/12/14 08:38:42;;;;;;;66.90;27.93;;;;;;;-145.69;100.00;52713.72;5095100;28;20284;-84
2022/12/14 08:41:11;;;;;;;62.20;25.93;;;;;;;-145.69;100.00;52691.94;5095106;28;20198;-84
2022/12/14 08:43:39;;;;;;;47.70;20.23;;;;;;;-145.69;100.00;52658.28;5098645;28;20614;-83
2022/12/14 08:46:07;;;;;;;48.87;20.83;;;;;;;-145.69;100.00;52709.78;5098189;28;20252;-84
2022/12/14 08:48:34;;;;;;;124.80;45.17;;;;;;;-145.69;100.00;52686.00;5096371;28;20202;-83
2022/12/14 08:51:02;;;;;;;96.07;38.67;;;;;;;-145.69;100.00;52664.22;5095213;28;20285;-84
2022/12/14 08:53:28;;;;;;;76.13;31.37;;;;;;;-145.69;100.00;52699.88;5094589;28;20202;-83
2022/12/14 08:55:55;;;;;;;111.40;40.83;;;;;;;-145.69;100.00;52709.78;5094819;28;20293;-83
2022/12/14 08:58:21;;;;;;;91.97;34.13;;;;;;;-145.69;100.00;52684.03;5094356;28;20202;-83
2022/12/14 09:00:49;;;;;;;66.13;29.37;;;;;;;-145.69;100.00;52674.13;5093539;28;20194;-83
2022/12/14 09:03:20;;;;;;;78.07;31.10;;;;;;;-145.69;100.00;52711.75;5093601;28;20284;-82
2022/12/14 09:05:46;;;;;;;67.27;29.83;;;;;;;-145.69;100.00;52701.84;5093603;28;20209;-83
2022/12/14 09:08:15;;;;;;;81.60;31.87;;;;;;;-145.69;100.00;52666.19;5094311;28;20243;-84
2022/12/14 09:10:49;;;;;;;76.13;30.67;;;;;;;-145.69;100.00;52689.97;5093684;28;20702;-83
2022/12/14 09:13:21;;;;;;;83.20;29.53;;;;;;;-145.69;100.00;52691.94;5093516;28;20201;-83
2022/12/14 09:15:56;;;;;;;65.70;27.20;;;;;;;-145.69;100.00;52709.78;5094604;28;20606;-83
2022/12/14 09:18:24;;;;;;;59.27;25.53;;;;;;;-145.69;100.00;52660.25;5093886;28;20186;-84
2022/12/14 09:20:54;;;;;;;64.83;26.77;;;;;;;-145.69;100.00;52658.28;5092631;28;20194;-84
2022/12/14 09:23:22;;;;;;;55.10;24.33;;;;;;;-145.69;100.00;52701.84;5093729;28;20641;-83
2022/12/14 09:25:58;;;;;;;46.30;21.63;;;;;;;-145.69;100.00;52709.78;5095237;28;20229;-83
2022/12/14 09:28:27;;;;;;;53.20;22.73;;;;;;;-145.69;100.00;52652.34;5094733;28;20202;-84
2022/12/14 09:30:56;;;;;;;41.43;18.10;;;;;;;-145.69;100.00;52697.88;5096110;28;20228;-83
2022/12/14 09:33:28;;;;;;;43.13;18.33;;;;;;;-145.69;100.00;52686.00;5094788;28;20675;-83
2022/12/14 09:36:00;;;;;;;40.17;17.17;;;;;;;-145.69;100.00;52686.00;5093895;28;20267;-83
2022/12/14 09:38:26;;;;;;;31.97;16.07;;;;;;;-145.69;100.00;52682.03;5093763;28;20257;-84
2022/12/14 09:40:57;;;;;;;36.13;16.27;;;;;;;-145.69;100.00;52687.97;5093419;28;20633;-84
2022/12/14 09:43:36;;;;;;;35.03;16.00;;;;;;;-145.69;100.00;52684.03;5093642;28;20194;-83
2022/12/14 09:46:21;;;;;;;36.57;16.87;;;;;;;-145.69;100.00;52713.72;5086924;28;20210;-83
2022/12/14 09:48:51;;;;;;;36.07;14.77;;;;;;;-145.69;100.00;52678.09;5093058;28;20216;-84
2022/12/14 09:51:21;;;;;;;40.03;15.13;;;;;;;-145.69;100.00;52678.09;5073269;28;20749;-84
2022/12/14 09:53:51;;;;;;;33.00;13.83;;;;;;;-145.69;100.00;52666.19;5072655;28;20207;-83
2022/12/14 09:56:20;;;;;;;29.47;14.63;;;;;;;-145.69;100.00;52670.16;5083742;28;20226;-83
2022/12/14 09:58:53;;;;;;;31.13;15.67;;;;;;;-145.69;100.00;52687.97;5094319;28;20229;-84
2022/12/14 10:01:47;;;;;;;42.60;19.07;;;;;;;-145.69;100.00;52670.16;5094373;28;20198;-83
2022/12/14 10:04:28;;;;;;;47.50;26.08;;;;;;;-145.69;100.00;52678.09;5092999;28;20429;-84
2022/12/14 10:07:03;;;;;;;58.67;29.33;;;;;;;-145.69;100.00;52686.00;5093685;28;20550;-83
2022/12/14 10:09:36;;;;;;;45.30;23.83;;;;;;;-145.69;100.00;52674.13;5093516;28;20197;-83
2022/12/14 10:12:16;;;;;;;45.40;21.67;;;;;;;-145.69;100.00;52701.84;5092535;28;20199;-83
2022/12/14 10:14:56;;;;;;;39.20;19.60;;;;;;;-145.69;100.00;52693.94;5093144;28;20287;-83
2022/12/14 10:17:34;;;;;;;36.33;16.40;;;;;;;-145.69;100.00;52691.94;5093555;28;20529;-83
2022/12/14 10:20:11;;;;;;;30.73;14.90;;;;;;;-145.69;100.00;52699.88;5095946;28;20194;-81
2022/12/14 10:22:41;;;;;;;26.40;12.73;;;;;;;-145.69;100.00;52668.19;5097042;28;20197;-82
2022/12/14 10:25:14;;;;;;;28.33;13.73;;;;;;;-145.69;100.00;52687.97;5096793;28;20210;-80
2022/12/14 10:27:45;;;;;;;26.00;13.27;;;;;;;-145.69;100.00;52693.94;5100298;28;20232;-82
2022/12/14 10:30:16;;;;;;;28.63;13.17;;;;;;;-145.69;100.00;52678.09;5098871;28;20198;-82
2022/12/14 10:32:51;;;;;;;25.17;12.87;;;;;;;-145.69;100.00;52664.22;5102759;28;20221;-80
2022/12/14 10:35:22;;;;;;;25.20;12.83;;;;;;;-145.69;100.00;52678.09;5098116;28;20260;-79
2022/12/14 10:37:58;;;;;;;28.23;13.03;;;;;;;-145.69;100.00;52705.81;5096128;28;20198;-80
2022/12/14 10:40:28;;;;;;;24.97;12.87;;;;;;;-145.69;100.00;52684.03;5099839;28;20552;-81
2022/12/14 10:43:07;;;;;;;26.07;13.37;;;;;;;-145.69;100.00;52691.94;5098136;28;20656;-81
2022/12/14 10:45:41;;;;;;;25.93;13.07;;;;;;;-145.69;100.00;52654.31;5097285;28;20204;-79
2022/12/14 10:48:25;;;;;;;23.97;12.20;;;;;;;-145.69;100.00;52670.16;5096596;28;20198;-78
2022/12/14 10:51:00;;;;;;;24.33;11.73;;;;;;;-145.69;100.00;52695.91;5095862;28;20197;-79
2022/12/14 10:53:33;;;;;;;24.57;12.47;;;;;;;-145.69;100.00;52686.00;5096064;28;20190;-81
2022/12/14 10:56:04;;;;;;;25.97;12.23;;;;;;;-145.69;100.00;52697.88;5104229;28;20265;-83
2022/12/14 10:58:32;;;;;;;27.03;13.03;;;;;;;-145.69;100.00;52676.09;5109383;28;20191;-80
2022/12/14 11:00:58;;;;;;;26.40;12.40;;;;;;;-145.69;100.00;52682.03;5096513;28;20201;-79
2022/12/14 11:03:27;;;;;;;30.20;14.17;;;;;;;-145.69;100.00;52691.94;5095468;28;20200;-81
2022/12/14 11:06:06;;;;;;;26.70;13.70;;;;;;;-145.69;100.00;52682.03;5096087;28;20202;-80
2022/12/14 11:08:44;;;;;;;25.33;12.60;;;;;;;-145.69;100.00;52678.09;5096763;28;20197;-80
2022/12/14 11:11:16;;;;;;;25.03;12.63;;;;;;;-145.69;100.00;52666.19;5096402;28;20205;-78
2022/12/14 11:13:51;;;;;;;28.70;13.00;;;;;;;-145.69;100.00;52678.09;5095637;28;20248;-79
2022/12/14 11:16:24;;;;;;;22.10;12.07;;;;;;;-145.69;100.00;52693.94;5095215;28;20296;-78
2022/12/14 11:19:02;;;;;;;29.37;13.67;;;;;;;-145.69;100.00;52654.31;5095735;28;20193;-79
2022/12/14 11:21:32;;;;;;;25.00;12.67;;;;;;;-145.69;100.00;52638.47;5095199;28;20292;-78
2022/12/14 11:24:00;;;;;;;24.47;11.87;;;;;;;-145.69;100.00;52686.00;5096786;28;20559;-79